Weather forecast for Mishelevka (Мишелевка)

Russia, 412 m
N52.890, E103.197


Sounding

Red line — air temperature ˚C.
Blue line — thermal bubble temperature ˚C.
Green line — dew point temperature ˚C.
Wind speed is in meters per second.

Table forecast

GFS 0.25˚ model

temp. wind gust humid. clouds prec. press. hpbl
Mon20 00:00 9 117.0 ese 4 7 28 16 0.0 1016 143
03:00 7 117.0 ese 3 6 34 8 0.0 1017 119
06:00 5 130.0 se 3 6 38 0 0.0 1016 118
09:00 10 140.0 se 4 5 36 0 0.0 1014 267
12:00 17 149.0 sse 4 4 27 0 0.0 1012 549
15:00 22 169.0 s 3 3 20 0 0.0 1011 1407
18:00 24 116.0 ese 2 1 18 16 0.0 1008 1682
21:00 21 121.0 ese 4 6 28 31 0.0 1008 120
 
Tue21 00:00 15 140.0 se 5 12 32 98 0.0 1009 241
03:00 13 184.0 s 3 6 33 95 0.0 1009 188
06:00 12 261.0 w 2 5 57 100 0.0 1009 118
09:00 15 289.0 wnw 3 5 55 97 0.0 1009 316
12:00 21 176.0 s 2 2 36 31 0.0 1006 896
15:00 25 166.0 sse 4 5 28 50 0.0 1003 1629
18:00 27 144.0 se 6 8 23 61 0.0 1000 1911
21:00 23 129.0 se 5 10 32 78 0.0 999 238
 
Wed22 00:00 17 143.0 se 4 6 43 82 0.0 999 117
03:00 15 271.0 w 4 8 48 89 0.0 1000 180
06:00 15 336.0 nnw 5 11 61 95 0.0 1002 477
09:00 16 345.0 nnw 2 3 64 97 0.0 1003 780
12:00 20 22.0 nne 3 2 46 100 0.0 1003 1298
15:00 22 55.0 ne 2 1 38 100 0.0 1000 1495
18:00 23 63.0 ene 3 2 34 99 0.0 998 1494
21:00 18 3.0 n 8 11 48 100 0.0 1001 639
 
Thu23 00:00 12 355.0 n 5 9 64 100 0.0 1002 575
03:00 11 352.0 n 8 11 67 100 0.1 1004 721
06:00 9 334.0 nnw 5 8 83 100 1.1 1005 669
09:00 8 354.0 n 5 8 79 100 3.6 1008 546
12:00 7 329.0 nnw 5 8 81 100 3.4 1010 480
15:00 9 312.0 nw 4 5 73 100 5.2 1011 677
18:00 11 254.0 wsw 4 4 65 100 0.4 1011 904
21:00 11 216.0 sw 3 5 72 83 0.5 1012 479
 
Fri24 00:00 7 165.0 sse 2 2 85 1 0.0 1015 22
03:00 5 169.0 s 2 2 86 1 0.0 1015 22
06:00 4 170.0 s 2 2 92 1 0.0 1015 22
09:00 8 36.0 ne 1 1 73 38 0.0 1015 256
12:00 12 15.0 nne 2 3 58 100 0.1 1015 775
15:00 14 359.0 n 3 4 45 100 0.6 1014 1458
18:00 15 319.0 nw 3 5 40 100 0.1 1015 1772
21:00 12 271.0 w 3 7 57 100 0.1 1016 230
 

0.014 s